createdAt,value
2023-01-25T00:02:11.459Z,2.36
2023-01-25T00:04:38.672Z,2.37
2023-01-25T00:07:05.912Z,2.40
2023-01-25T00:09:33.075Z,2.41
2023-01-25T00:12:00.410Z,2.43
2023-01-25T00:14:28.165Z,2.45
2023-01-25T00:16:55.418Z,2.47
2023-01-25T00:19:22.749Z,2.45
2023-01-25T00:21:50.361Z,2.50
2023-01-25T00:24:17.587Z,2.51
2023-01-25T00:26:44.883Z,2.53
2023-01-25T00:29:14.173Z,2.54
2023-01-25T00:31:54.370Z,2.57
2023-01-25T00:34:27.658Z,2.57
2023-01-25T00:37:02.157Z,2.57
2023-01-25T00:39:30.187Z,2.54
2023-01-25T00:41:57.983Z,2.55
2023-01-25T00:44:25.250Z,2.55
2023-01-25T00:46:52.536Z,2.55
2023-01-25T00:49:28.120Z,2.57
2023-01-25T00:51:55.673Z,2.56
2023-01-25T00:54:23.301Z,2.57
2023-01-25T00:56:51.356Z,2.57
2023-01-25T00:59:18.591Z,2.59
2023-01-25T01:01:46.299Z,2.58
2023-01-25T01:04:13.805Z,2.58
2023-01-25T01:06:42.602Z,2.62
2023-01-25T01:09:18.561Z,2.62
2023-01-25T01:11:45.830Z,2.63
2023-01-25T01:14:13.916Z,2.61
2023-01-25T01:16:41.644Z,2.62
2023-01-25T01:19:08.849Z,2.63
2023-01-25T01:21:36.006Z,2.62
2023-01-25T01:24:03.952Z,2.63
2023-01-25T01:26:31.127Z,2.61
2023-01-25T01:28:59.307Z,2.63
2023-01-25T01:31:27.179Z,2.61
2023-01-25T01:33:57.023Z,2.60
2023-01-25T01:36:28.330Z,2.57
2023-01-25T01:38:55.854Z,2.58
2023-01-25T01:41:26.990Z,2.59
2023-01-25T01:43:54.393Z,2.61
2023-01-25T01:46:38.720Z,2.60
2023-01-25T01:49:24.246Z,2.55
2023-01-25T01:52:01.565Z,2.56
2023-01-25T01:54:42.787Z,2.54
2023-01-25T01:57:25.651Z,2.53
2023-01-25T02:00:01.666Z,2.48
2023-01-25T02:02:28.994Z,2.44
2023-01-25T02:05:03.644Z,2.44
2023-01-25T02:07:37.707Z,2.42
2023-01-25T02:10:11.403Z,2.44
2023-01-25T02:12:39.558Z,2.43
2023-01-25T02:15:08.006Z,2.43
2023-01-25T02:17:38.912Z,2.40
2023-01-25T02:20:29.187Z,2.39
2023-01-25T02:23:16.748Z,2.35
2023-01-25T02:25:44.210Z,2.37
2023-01-25T02:28:28.151Z,2.38
2023-01-25T02:30:55.354Z,2.38
2023-01-25T02:33:27.362Z,2.39
2023-01-25T02:36:08.310Z,2.32
2023-01-25T02:38:45.639Z,2.33
2023-01-25T02:41:33.517Z,2.32
2023-01-25T02:44:05.475Z,2.33
2023-01-25T02:46:39.734Z,2.33
2023-01-25T02:49:09.706Z,2.29
2023-01-25T02:51:41.373Z,2.31
2023-01-25T02:54:11.393Z,2.29
2023-01-25T02:56:39.705Z,2.31
2023-01-25T02:59:08.357Z,2.25
2023-01-25T03:01:38.620Z,2.22
2023-01-25T03:04:07.101Z,2.18
2023-01-25T03:06:36.261Z,2.16
2023-01-25T03:09:10.297Z,2.12
2023-01-25T03:11:37.692Z,2.15
2023-01-25T03:14:05.269Z,2.13
2023-01-25T03:16:32.872Z,2.15
2023-01-25T03:19:00.177Z,2.15
2023-01-25T03:21:28.005Z,2.14
2023-01-25T03:24:00.480Z,2.16
2023-01-25T03:26:29.667Z,2.16
2023-01-25T03:28:57.337Z,2.17
2023-01-25T03:31:25.013Z,2.14
2023-01-25T03:33:52.356Z,2.09
2023-01-25T03:36:19.635Z,2.05
2023-01-25T03:38:48.035Z,2.06
2023-01-25T03:41:15.184Z,2.05
2023-01-25T03:43:44.001Z,2.06
2023-01-25T03:46:11.637Z,2.01
2023-01-25T03:48:42.259Z,2.01
2023-01-25T03:51:09.793Z,1.98
2023-01-25T03:53:37.046Z,1.97
2023-01-25T03:56:11.361Z,1.95
2023-01-25T03:58:40.132Z,1.90
2023-01-25T04:01:08.863Z,1.86
2023-01-25T04:03:36.351Z,1.81
2023-01-25T04:06:05.654Z,1.82
2023-01-25T04:08:33.538Z,1.81
2023-01-25T04:11:07.593Z,1.76
2023-01-25T04:13:36.412Z,1.77
2023-01-25T04:16:22.359Z,1.71
2023-01-25T04:18:49.538Z,1.70
2023-01-25T04:21:16.892Z,1.66
2023-01-25T04:23:44.409Z,1.62
2023-01-25T04:26:12.453Z,1.64
2023-01-25T04:28:41.174Z,1.61
2023-01-25T04:31:08.395Z,1.63
2023-01-25T04:33:35.754Z,1.61
2023-01-25T04:36:03.708Z,1.61
2023-01-25T04:38:30.930Z,1.58
2023-01-25T04:40:58.314Z,1.56
2023-01-25T04:43:26.808Z,1.53
2023-01-25T04:45:54.085Z,1.51
2023-01-25T04:48:21.270Z,1.50
2023-01-25T04:50:48.528Z,1.49
2023-01-25T04:53:15.797Z,1.51
2023-01-25T04:55:46.744Z,1.50
2023-01-25T04:58:14.963Z,1.44
2023-01-25T05:00:42.415Z,1.40
2023-01-25T05:03:09.729Z,1.40
2023-01-25T05:05:36.902Z,1.42
2023-01-25T05:08:04.336Z,1.37
2023-01-25T05:10:31.594Z,1.40
2023-01-25T05:12:58.802Z,1.40
2023-01-25T05:15:26.317Z,1.39
2023-01-25T05:17:53.523Z,1.40
2023-01-25T05:20:20.758Z,1.41
2023-01-25T05:22:47.967Z,1.35
2023-01-25T05:25:15.147Z,1.34
2023-01-25T05:27:42.313Z,1.32
2023-01-25T05:30:10.342Z,1.28
2023-01-25T05:32:37.526Z,1.28
2023-01-25T05:35:05.154Z,1.27
2023-01-25T05:37:32.429Z,1.28
2023-01-25T05:39:59.562Z,1.27
2023-01-25T05:42:26.802Z,1.26
2023-01-25T05:44:54.000Z,1.14
2023-01-25T05:47:21.225Z,1.16
2023-01-25T05:49:48.341Z,1.13
2023-01-25T05:52:17.140Z,1.11
2023-01-25T05:54:44.538Z,1.05
2023-01-25T05:57:14.231Z,1.01
2023-01-25T05:59:41.949Z,1.01
2023-01-25T06:02:09.161Z,0.91
2023-01-25T06:04:36.524Z,0.91
2023-01-25T06:07:03.701Z,0.87
2023-01-25T06:09:30.860Z,0.84
2023-01-25T06:11:58.101Z,0.81
2023-01-25T06:14:25.352Z,0.80
2023-01-25T06:16:52.743Z,0.76
2023-01-25T06:19:20.140Z,0.73
2023-01-25T06:21:47.368Z,0.62
2023-01-25T06:24:14.688Z,0.61
2023-01-25T06:26:41.911Z,0.58
2023-01-25T06:29:09.346Z,0.58
2023-01-25T06:31:36.688Z,0.56
2023-01-25T06:34:04.088Z,0.57
2023-01-25T06:36:31.283Z,0.56
2023-01-25T06:38:58.803Z,0.53
2023-01-25T06:41:26.570Z,0.58
2023-01-25T06:43:54.325Z,0.61
2023-01-25T06:46:24.716Z,0.63
2023-01-25T06:48:52.336Z,0.66
2023-01-25T06:51:19.769Z,0.68
2023-01-25T06:53:47.240Z,0.70
2023-01-25T06:56:21.989Z,0.73
2023-01-25T06:58:50.007Z,0.69
2023-01-25T07:01:22.191Z,0.73
2023-01-25T07:03:55.615Z,0.76
2023-01-25T07:06:25.362Z,0.75
2023-01-25T07:09:02.509Z,0.78
2023-01-25T07:11:30.101Z,0.76
2023-01-25T07:13:57.480Z,0.78
2023-01-25T07:16:24.735Z,0.86
2023-01-25T07:18:52.085Z,0.86
2023-01-25T07:21:22.988Z,0.88
2023-01-25T07:23:51.736Z,0.84
2023-01-25T07:26:25.832Z,0.80
2023-01-25T07:28:54.477Z,0.83
2023-01-25T07:31:22.377Z,0.89
2023-01-25T07:33:51.693Z,0.97
2023-01-25T07:36:19.833Z,1.03
2023-01-25T07:38:47.909Z,1.05
2023-01-25T07:41:15.711Z,1.05
2023-01-25T07:43:43.096Z,1.05
2023-01-25T07:46:13.343Z,1.09
2023-01-25T07:48:47.183Z,1.15
2023-01-25T07:51:16.352Z,1.14
2023-01-25T07:53:44.447Z,1.18
2023-01-25T07:56:12.928Z,1.21
2023-01-25T07:58:40.552Z,1.22
2023-01-25T08:01:13.342Z,1.24
2023-01-25T08:03:41.458Z,1.25
2023-01-25T08:06:08.743Z,1.28
2023-01-25T08:08:44.431Z,1.25
2023-01-25T08:11:18.321Z,1.30
2023-01-25T08:13:45.988Z,1.36
2023-01-25T08:16:19.565Z,1.39
2023-01-25T08:18:56.099Z,1.43
2023-01-25T08:21:26.754Z,1.45
2023-01-25T08:23:53.982Z,1.46
2023-01-25T08:26:21.485Z,1.48
2023-01-25T08:28:49.203Z,1.53
2023-01-25T08:31:24.732Z,1.54
2023-01-25T08:33:52.983Z,1.56
2023-01-25T08:36:22.299Z,1.60
2023-01-25T08:38:56.840Z,1.60
2023-01-25T08:41:26.289Z,1.64
2023-01-25T08:43:55.797Z,1.67
2023-01-25T08:46:25.867Z,1.76
2023-01-25T08:48:57.651Z,1.77
2023-01-25T08:51:26.295Z,1.81
2023-01-25T08:53:54.084Z,1.84
2023-01-25T08:56:21.816Z,1.90
2023-01-25T08:58:50.560Z,1.97
2023-01-25T09:01:20.068Z,2.01
2023-01-25T09:03:50.882Z,2.01
2023-01-25T09:06:18.872Z,2.03
2023-01-25T09:08:46.872Z,2.04
2023-01-25T09:11:22.595Z,2.11
2023-01-25T09:13:50.619Z,2.14
2023-01-25T09:16:23.983Z,2.15
2023-01-25T09:18:51.287Z,2.15
2023-01-25T09:21:19.779Z,2.16
2023-01-25T09:24:07.850Z,2.20
2023-01-25T09:26:40.240Z,2.23
2023-01-25T09:29:09.485Z,2.23
2023-01-25T09:31:39.549Z,2.28
2023-01-25T09:34:06.828Z,2.29
2023-01-25T09:36:34.056Z,2.28
2023-01-25T09:39:01.240Z,2.30
2023-01-25T09:42:14.765Z,2.33
2023-01-25T09:45:09.477Z,2.30
2023-01-25T09:48:17.727Z,2.30
2023-01-25T09:51:16.769Z,2.31
2023-01-25T09:53:51.285Z,2.33
2023-01-25T09:56:34.781Z,2.36
2023-01-25T09:59:13.963Z,2.39
2023-01-25T10:01:57.376Z,2.47
2023-01-25T10:04:37.911Z,2.47
2023-01-25T10:08:00.863Z,2.50
2023-01-25T10:10:39.829Z,2.49
2023-01-25T10:13:14.725Z,2.45
2023-01-25T10:15:58.630Z,2.53
2023-01-25T10:19:00.167Z,2.57
2023-01-25T10:21:36.647Z,2.54
2023-01-25T10:24:14.122Z,2.58
2023-01-25T10:26:49.057Z,2.61
2023-01-25T10:29:37.812Z,2.63
2023-01-25T10:32:29.648Z,2.62
2023-01-25T10:35:19.816Z,2.62
2023-01-25T10:37:54.080Z,2.67
2023-01-25T10:40:28.009Z,2.79
2023-01-25T10:43:17.049Z,2.80
2023-01-25T10:45:44.376Z,2.85
2023-01-25T10:48:29.977Z,2.90
2023-01-25T10:50:57.884Z,2.97
2023-01-25T10:53:30.287Z,3.02
2023-01-25T10:56:11.558Z,3.12
2023-01-25T10:58:41.701Z,3.17
2023-01-25T11:01:24.719Z,3.30
2023-01-25T11:03:52.394Z,3.20
2023-01-25T11:06:31.460Z,3.33
2023-01-25T11:09:23.003Z,3.40
2023-01-25T11:12:18.949Z,3.53
2023-01-25T11:15:03.335Z,3.68
2023-01-25T11:17:31.904Z,3.73
2023-01-25T11:20:25.715Z,3.78
2023-01-25T11:22:57.620Z,3.87
2023-01-25T11:25:34.890Z,3.92
2023-01-25T11:28:25.176Z,3.98
2023-01-25T11:30:54.266Z,4.07
2023-01-25T11:33:22.899Z,4.10
2023-01-25T11:36:29.152Z,4.15
2023-01-25T11:39:22.077Z,4.22
2023-01-25T11:42:13.924Z,4.29
2023-01-25T11:45:08.839Z,4.33
2023-01-25T11:48:39.123Z,4.32
2023-01-25T11:51:34.571Z,4.30
2023-01-25T11:54:29.376Z,4.24
2023-01-25T11:57:26.017Z,4.20
2023-01-25T12:00:05.738Z,4.20
2023-01-25T12:03:02.859Z,4.26
2023-01-25T12:05:42.210Z,4.25
2023-01-25T12:08:51.198Z,4.28
2023-01-25T12:11:27.141Z,4.31
2023-01-25T12:14:48.203Z,4.82
2023-01-25T12:17:26.251Z,5.80
2023-01-25T12:20:09.142Z,6.90
2023-01-25T12:23:21.860Z,7.56
2023-01-25T12:26:11.178Z,7.69
2023-01-25T12:29:01.159Z,7.45
2023-01-25T12:32:03.021Z,6.74
2023-01-25T12:34:39.946Z,6.09
2023-01-25T12:37:22.257Z,5.49
2023-01-25T12:40:07.092Z,5.04
2023-01-25T12:42:47.620Z,4.67
2023-01-25T12:45:25.507Z,4.40
2023-01-25T12:48:36.070Z,4.06
2023-01-25T12:51:03.552Z,3.80
2023-01-25T12:53:41.427Z,3.58
2023-01-25T12:56:28.482Z,3.37
2023-01-25T12:59:16.065Z,3.17
2023-01-25T13:02:15.514Z,3.04
2023-01-25T13:05:10.595Z,2.92
2023-01-25T13:08:12.606Z,2.73
2023-01-25T13:11:06.614Z,2.64
2023-01-25T13:13:33.841Z,2.58
2023-01-25T13:16:35.180Z,2.49
2023-01-25T13:19:02.850Z,2.43
2023-01-25T13:21:44.205Z,2.35
2023-01-25T13:24:20.932Z,2.20
2023-01-25T13:27:30.917Z,2.17
2023-01-25T13:30:31.305Z,2.08
2023-01-25T13:33:07.779Z,2.01
2023-01-25T13:35:40.463Z,2.01
2023-01-25T13:38:28.375Z,1.98
2023-01-25T13:41:15.815Z,1.86
2023-01-25T13:43:47.711Z,1.77
2023-01-25T13:46:19.275Z,1.77
2023-01-25T13:48:59.838Z,1.73
2023-01-25T13:51:33.784Z,1.62
2023-01-25T13:54:01.353Z,1.67
2023-01-25T13:56:35.451Z,1.64
2023-01-25T13:59:02.839Z,1.61
2023-01-25T14:01:34.123Z,1.58
2023-01-25T14:04:05.102Z,1.54
2023-01-25T14:06:40.523Z,1.51
2023-01-25T14:09:20.488Z,1.50
2023-01-25T14:12:01.807Z,1.37
2023-01-25T14:14:34.988Z,1.29
2023-01-25T14:17:16.763Z,1.29
2023-01-25T14:19:50.752Z,1.24
2023-01-25T14:22:30.066Z,1.11
2023-01-25T14:25:20.185Z,1.13
2023-01-25T14:27:55.874Z,1.04
2023-01-25T14:30:34.340Z,1.24
2023-01-25T14:33:17.318Z,1.13
2023-01-25T14:35:55.647Z,1.02
2023-01-25T14:38:35.683Z,1.05
2023-01-25T14:41:13.077Z,0.96
2023-01-25T14:43:43.456Z,0.85
2023-01-25T14:46:27.306Z,0.87
2023-01-25T14:49:26.941Z,0.86
2023-01-25T14:52:05.218Z,0.78
2023-01-25T14:54:44.643Z,0.68
2023-01-25T14:57:35.777Z,0.60
2023-01-25T15:00:18.846Z,0.57
2023-01-25T15:03:15.595Z,0.49
2023-01-25T15:05:47.333Z,0.47
2023-01-25T15:08:37.475Z,0.36
2023-01-25T15:11:04.969Z,0.24
2023-01-25T15:13:32.252Z,0.27
2023-01-25T15:16:03.354Z,0.29
2023-01-25T15:18:53.379Z,0.27
2023-01-25T15:21:28.874Z,0.21
2023-01-25T15:24:00.002Z,0.14
2023-01-25T15:26:30.874Z,0.12
2023-01-25T15:29:05.654Z,0.14
2023-01-25T15:31:37.315Z,0.14
2023-01-25T15:34:05.675Z,0.15
2023-01-25T15:36:33.890Z,0.14
2023-01-25T15:39:01.259Z,0.13
2023-01-25T15:41:28.526Z,0.14
2023-01-25T15:43:55.769Z,0.17
2023-01-25T15:46:26.512Z,0.18
2023-01-25T15:48:54.524Z,0.19
2023-01-25T15:51:22.611Z,0.23
2023-01-25T15:53:49.914Z,0.24
2023-01-25T15:56:21.652Z,0.22
2023-01-25T15:58:59.463Z,0.25
2023-01-25T16:01:29.731Z,0.28
2023-01-25T16:03:59.224Z,0.27
2023-01-25T16:06:35.676Z,0.29
2023-01-25T16:09:22.971Z,0.28
2023-01-25T16:11:57.090Z,0.26
2023-01-25T16:14:26.825Z,0.24
2023-01-25T16:16:54.300Z,0.28
2023-01-25T16:19:25.352Z,0.26
2023-01-25T16:21:52.986Z,0.28
2023-01-25T16:24:20.320Z,0.18
2023-01-25T16:27:01.252Z,0.25
2023-01-25T16:29:29.011Z,0.10
2023-01-25T16:31:57.757Z,0.15
2023-01-25T16:34:27.925Z,0.21
2023-01-25T16:37:05.640Z,0.19
2023-01-25T16:39:33.054Z,0.23
2023-01-25T16:42:00.384Z,0.23
2023-01-25T16:44:27.754Z,0.29
2023-01-25T16:46:55.127Z,0.29
2023-01-25T16:49:27.336Z,0.32
2023-01-25T16:51:55.141Z,0.26
2023-01-25T16:54:23.408Z,0.28
2023-01-25T16:56:53.368Z,0.33
2023-01-25T16:59:23.185Z,0.30
2023-01-25T17:01:51.148Z,0.27
2023-01-25T17:04:19.156Z,0.33
2023-01-25T17:06:49.949Z,0.34
2023-01-25T17:09:24.061Z,0.43
2023-01-25T17:11:54.046Z,0.38
2023-01-25T17:14:23.253Z,0.51
2023-01-25T17:16:51.016Z,0.54
2023-01-25T17:19:19.523Z,0.51
2023-01-25T17:21:47.088Z,0.58
2023-01-25T17:24:21.312Z,0.55
2023-01-25T17:26:51.442Z,0.63
2023-01-25T17:29:18.766Z,0.61
2023-01-25T17:31:46.106Z,0.68
2023-01-25T17:34:16.232Z,0.77
2023-01-25T17:36:45.554Z,0.81
2023-01-25T17:39:15.647Z,0.81
2023-01-25T17:41:45.327Z,0.81
2023-01-25T17:44:14.278Z,0.76
2023-01-25T17:46:41.537Z,0.82
2023-01-25T17:49:12.953Z,0.85
2023-01-25T17:51:40.276Z,0.88
2023-01-25T17:54:08.060Z,0.81
2023-01-25T17:56:37.866Z,0.84
2023-01-25T17:59:07.514Z,0.90
2023-01-25T18:01:35.862Z,0.94
2023-01-25T18:04:08.447Z,0.98
2023-01-25T18:06:36.225Z,0.97
2023-01-25T18:09:05.717Z,0.95
2023-01-25T18:11:36.397Z,0.97
2023-01-25T18:14:07.521Z,1.00
2023-01-25T18:16:38.290Z,1.03
2023-01-25T18:19:06.967Z,1.04
2023-01-25T18:21:35.356Z,1.00
2023-01-25T18:24:31.769Z,0.98
2023-01-25T18:27:22.012Z,0.98
2023-01-25T18:30:22.157Z,0.99
2023-01-25T18:32:49.780Z,0.97
2023-01-25T18:35:16.951Z,1.01
2023-01-25T18:37:44.209Z,0.97
2023-01-25T18:40:14.255Z,0.97
2023-01-25T18:42:41.625Z,0.94
2023-01-25T18:45:09.862Z,0.99
2023-01-25T18:47:37.228Z,0.96
2023-01-25T18:50:06.218Z,0.98
2023-01-25T18:52:36.232Z,0.98
2023-01-25T18:55:03.616Z,0.95
2023-01-25T18:57:31.099Z,1.00
2023-01-25T18:59:59.801Z,1.00
2023-01-25T19:02:27.423Z,0.99
2023-01-25T19:04:54.672Z,0.98
2023-01-25T19:07:23.801Z,0.94
2023-01-25T19:09:51.152Z,0.92
2023-01-25T19:12:18.529Z,0.93
2023-01-25T19:14:45.752Z,0.92
2023-01-25T19:17:13.035Z,0.90
2023-01-25T19:19:41.485Z,0.84
2023-01-25T19:22:08.676Z,0.82
2023-01-25T19:24:36.657Z,0.75
2023-01-25T19:27:04.118Z,0.69
2023-01-25T19:29:31.453Z,0.63
2023-01-25T19:31:58.726Z,0.62
2023-01-25T19:34:26.145Z,0.57
2023-01-25T19:36:53.675Z,0.53
2023-01-25T19:39:21.468Z,0.48
2023-01-25T19:41:51.794Z,0.45
2023-01-25T19:44:18.905Z,0.37
2023-01-25T19:46:46.305Z,0.23
2023-01-25T19:49:13.777Z,0.18
2023-01-25T19:51:43.639Z,0.12
2023-01-25T19:54:14.571Z,0.10
2023-01-25T19:56:44.297Z,0.00
2023-01-25T19:59:16.120Z,-0.02
2023-01-25T20:01:45.227Z,-0.08
2023-01-25T20:04:22.556Z,-0.13
2023-01-25T20:06:51.573Z,-0.20
2023-01-25T20:09:20.102Z,-0.22
2023-01-25T20:11:47.579Z,-0.28
2023-01-25T20:14:15.804Z,-0.32
2023-01-25T20:16:43.563Z,-0.36
2023-01-25T20:19:13.750Z,-0.39
2023-01-25T20:21:41.205Z,-0.41
2023-01-25T20:24:09.197Z,-0.44
2023-01-25T20:26:39.971Z,-0.47
2023-01-25T20:29:07.828Z,-0.50
2023-01-25T20:31:38.547Z,-0.57
2023-01-25T20:34:12.349Z,-0.61
2023-01-25T20:36:40.975Z,-0.62
2023-01-25T20:39:11.013Z,-0.66
2023-01-25T20:41:38.318Z,-0.70
2023-01-25T20:44:06.039Z,-0.72
2023-01-25T20:46:33.528Z,-0.77
2023-01-25T20:49:01.971Z,-0.82
2023-01-25T20:51:29.671Z,-0.86
2023-01-25T20:53:57.684Z,-0.93
2023-01-25T20:56:25.595Z,-0.87
2023-01-25T20:58:53.882Z,-0.92
2023-01-25T21:01:26.027Z,-0.98
2023-01-25T21:03:53.246Z,-1.01
2023-01-25T21:06:20.794Z,-1.02
2023-01-25T21:08:48.044Z,-1.03
2023-01-25T21:11:15.699Z,-1.07
2023-01-25T21:13:43.167Z,-1.10
2023-01-25T21:16:12.722Z,-1.10
2023-01-25T21:18:43.734Z,-1.17
2023-01-25T21:21:24.719Z,-1.23
2023-01-25T21:23:52.287Z,-1.29
2023-01-25T21:26:31.975Z,-1.31
2023-01-25T21:29:01.590Z,-1.37
2023-01-25T21:31:36.010Z,-1.41
2023-01-25T21:34:05.184Z,-1.45
2023-01-25T21:36:33.267Z,-1.46
2023-01-25T21:39:00.489Z,-1.50
2023-01-25T21:41:31.546Z,-1.56
2023-01-25T21:44:00.473Z,-1.56
2023-01-25T21:46:28.943Z,-1.59
2023-01-25T21:49:08.578Z,-1.69
2023-01-25T21:51:35.754Z,-1.71
2023-01-25T21:54:03.293Z,-1.74
2023-01-25T21:56:30.549Z,-1.85
2023-01-25T21:58:57.925Z,-1.87
2023-01-25T22:01:25.202Z,-1.91
2023-01-25T22:03:53.108Z,-1.96
2023-01-25T22:06:20.451Z,-2.02
2023-01-25T22:08:47.586Z,-2.08
2023-01-25T22:11:15.183Z,-2.17
2023-01-25T22:13:42.576Z,-2.23
2023-01-25T22:16:11.920Z,-2.31
2023-01-25T22:18:42.151Z,-2.37
2023-01-25T22:21:22.660Z,-2.50
2023-01-25T22:23:51.554Z,-2.49
2023-01-25T22:26:22.069Z,-2.59
2023-01-25T22:28:57.053Z,-2.56
2023-01-25T22:31:30.095Z,-2.65
2023-01-25T22:33:59.452Z,-2.63
2023-01-25T22:36:30.114Z,-2.72
2023-01-25T22:38:58.060Z,-2.79
2023-01-25T22:41:29.520Z,-2.79
2023-01-25T22:43:57.827Z,-2.83
2023-01-25T22:46:27.926Z,-2.88
2023-01-25T22:48:55.703Z,-2.90
2023-01-25T22:51:28.532Z,-2.96
2023-01-25T22:53:58.417Z,-3.02
2023-01-25T22:56:34.770Z,-3.08
2023-01-25T22:59:02.262Z,-3.13
2023-01-25T23:01:33.471Z,-3.21
2023-01-25T23:04:02.269Z,-3.24
2023-01-25T23:06:33.016Z,-3.24
2023-01-25T23:09:04.591Z,-3.27
2023-01-25T23:11:36.321Z,-3.25
2023-01-25T23:14:12.083Z,-3.28
2023-01-25T23:16:39.237Z,-3.33
2023-01-25T23:19:06.631Z,-3.37
2023-01-25T23:21:34.084Z,-3.36
2023-01-25T23:24:03.063Z,-3.43
2023-01-25T23:26:32.664Z,-3.44
2023-01-25T23:28:59.939Z,-3.45
2023-01-25T23:31:27.335Z,-3.55
2023-01-25T23:34:01.149Z,-3.61
2023-01-25T23:36:35.291Z,-3.69
2023-01-25T23:39:03.137Z,-3.68
2023-01-25T23:41:32.343Z,-3.72
2023-01-25T23:43:59.743Z,-3.78
2023-01-25T23:46:27.681Z,-3.78
2023-01-25T23:48:54.932Z,-3.82
2023-01-25T23:51:22.221Z,-3.86
2023-01-25T23:53:49.572Z,-3.86
2023-01-25T23:56:21.690Z,-3.92
2023-01-25T23:58:49.308Z,-3.96
